Latest Weather Observations for Cape Sorell

IDT60801

Issued at 10:35 pm EDT Thursday 23 October 2014 (issued every 30 minutes, with the page automatically refreshed every 10 minutes)

About weather observations | Map of weather stations | Latest weather observations for TAS | Other Formats
Station Details ID: 097000 Name: CAPE SORELL Lat: -42.20 Lon: 145.17 Height: 19.3 m
Data from the previous 72 hours. | See also: Recent months at Cape Sorell
Date/Time
EDT
Temp
°C
App
Temp
°C
Dew
Point
Rel
Hum
%
Delta-T
°C
Wind Press
QNH
hPa
Press
MSL
hPa
Rain
since 9 am
mm
Dir
 
Spd
km/h
Gust
km/h
Spd
kts
Gust
kts
23/10:30pm 12.7 12.2 10.9 89 0.9 NW 4 6 2 3 1021.5 1021.5 0.0
23/10:00pm 12.9 12.9 11.0 88 1.0 NW 2 4 1 2 1021.4 1021.4 0.0
23/09:30pm 13.1 12.6 10.8 86 1.2 NW 4 6 2 3 1021.5 1021.5 0.0
23/09:00pm 13.2 13.0 10.6 84 1.4 WSW 2 6 1 3 1021.4 1021.4 0.0
23/08:30pm 13.2 12.5 10.0 81 1.6 NNW 4 4 2 2 1021.3 1021.3 0.0
23/08:00pm 13.6 13.3 10.0 79 1.9 S 2 4 1 2 1021.2 1021.2 0.0
23/07:30pm 14.3 14.1 10.5 78 2.0 S 2 4 1 2 1021.0 1021.0 0.0
23/07:00pm 14.8 13.7 10.8 77 2.1 S 7 9 4 5 1020.9 1020.9 0.0
23/06:30pm 15.0 12.9 11.0 77 2.1 S 13 17 7 9 1021.0 1021.0 0.0
23/06:00pm 15.1 12.2 11.1 77 2.1 S 17 24 9 13 1021.1 1021.1 0.0
23/05:30pm 14.2 9.7 10.2 77 2.1 S 24 30 13 16 1020.9 1020.9 0.0
23/05:00pm 14.4 9.6 10.2 76 2.2 S 26 32 14 17 1020.9 1020.9 0.0
23/04:30pm 15.3 10.7 10.9 75 2.3 S 26 32 14 17 1020.7 1020.7 0.0
23/04:00pm 15.7 11.2 11.3 75 2.4 S 26 30 14 16 1020.8 1020.8 0.0
23/03:30pm 15.8 11.6 11.2 74 2.5 S 24 30 13 16 1020.7 1020.7 0.0
23/03:00pm 15.6 10.6 10.8 73 2.5 S 28 33 15 18 1020.6 1020.6 0.0
23/02:30pm 15.7 11.0 10.7 72 2.7 S 26 32 14 17 1020.7 1020.7 0.0
23/02:00pm 15.6 10.9 10.8 73 2.5 S 26 33 14 18 1020.8 1020.8 0.0
23/01:30pm 15.4 10.3 10.6 73 2.5 S 28 35 15 19 1020.9 1020.9 0.0
23/01:00pm 15.0 9.0 10.2 73 2.5 S 32 41 17 22 1021.0 1021.0 0.0
23/12:30pm 14.7 8.4 9.7 72 2.6 S 33 41 18 22 1021.0 1021.0 0.0
23/12:00pm 14.8 9.5 9.8 72 2.6 S 28 33 15 18 1021.4 1021.4 0.0
23/11:30am 14.9 9.6 9.7 71 2.7 S 28 32 15 17 1021.7 1021.7 0.0
23/11:00am 17.6 14.0 8.5 55 4.7 SSE 17 26 9 14 1022.1 1022.1 0.0
23/10:30am 16.6 12.2 9.1 61 3.9 SE 22 32 12 17 1022.2 1022.2 0.0
23/10:00am 15.4 11.0 9.1 66 3.2 SE 22 33 12 18 1022.3 1022.3 0.0
23/09:30am 14.2 9.3 8.4 68 2.9 SE 24 33 13 18 1022.2 1022.2 0.0
23/09:00am 13.6 9.0 8.2 70 2.7 SSE 22 32 12 17 1022.2 1022.2 0.0
23/08:30am 12.2 6.8 7.9 75 2.1 SSE 26 35 14 19 1022.4 1022.4 0.0
23/08:00am 11.0 6.5 8.6 85 1.2 S 22 30 12 16 1022.2 1022.2 0.0
23/07:30am 9.7 3.5 7.8 88 0.9 S 30 35 16 19 1022.1 1022.1 0.0
23/07:00am 9.5 2.9 7.9 90 0.8 S 32 41 17 22 1021.7 1021.7 0.0
23/06:30am 9.5 3.7 8.1 91 0.7 S 28 35 15 19 1021.4 1021.4 0.0
23/06:00am 9.6 3.5 8.2 91 0.7 S 30 39 16 21 1021.0 1021.0 0.0
23/05:30am 10.0 3.7 8.8 92 0.6 S 32 41 17 22 1020.7 1020.7 0.0
23/05:00am 10.1 4.2 8.9 92 0.6 S 30 37 16 20 1020.6 1020.6 0.0
23/04:30am 10.4 4.5 9.2 92 0.6 S 30 37 16 20 1020.4 1020.4 0.0
23/04:00am 10.4 5.3 9.2 92 0.6 S 26 35 14 19 1020.4 1020.4 0.0
23/03:30am 10.9 3.8 9.7 92 0.6 S 37 44 20 24 1020.3 1020.3 0.0
23/03:00am 11.6 4.8 10.7 94 0.5 S 37 44 20 24 1020.1 1020.1 0.0
23/02:30am 11.9 6.0 11.1 95 0.4 S 33 41 18 22 1020.2 1020.2 0.0
23/02:00am 12.1 4.8 11.5 96 0.3 S 41 50 22 27 1020.0 1020.0 0.0
23/01:30am 12.1 5.5 11.3 95 0.4 S 37 46 20 25 1020.1 1020.1 0.0
23/01:00am 12.3 4.6 11.4 94 0.5 S 43 54 23 29 1020.1 1020.1 0.0
23/12:41am 12.9 8.1 11.6 92 0.7 S 28 50 15 27 1020.3 1020.3 0.0
23/12:30am 12.8 9.4 11.4 91 0.7 S 20 28 11 15 1020.5 1020.5 0.0
23/12:00am 12.9 8.8 11.6 92 0.7 SSE 24 30 13 16 1020.6 1020.6 0.0
 
Date/Time
EDT
Temp
°C
App
Temp
°C
Dew
Point
Rel
Hum
%
Delta-T
°C
Wind Press
QNH
hPa
Press
MSL
hPa
Rain
since 9 am
mm
Dir
 
Spd
km/h
Gust
km/h
Spd
kts
Gust
kts
22/11:30pm 13.1 7.1 12.2 94 0.5 S 35 43 19 23 1020.5 1020.5 0.0
22/11:00pm 13.0 7.5 12.4 96 0.3 S 33 41 18 22 1020.1 1020.1 0.0
22/10:30pm 13.0 9.7 12.7 98 0.2 S 22 30 12 16 1019.7 1019.7 0.0
22/10:00pm 13.3 9.6 12.8 97 0.3 S 24 30 13 16 1019.3 1019.3 0.0
22/09:30pm 13.2 9.9 12.9 98 0.2 S 22 30 12 16 1019.1 1019.1 0.0
22/09:00pm 13.5 10.4 13.3 99 0.1 S 22 30 12 16 1019.0 1019.0 0.0
22/08:30pm 13.4 9.8 13.2 99 0.1 S 24 32 13 17 1018.5 1018.5 0.0
22/08:00pm 13.5 9.6 13.2 98 0.2 S 26 32 14 17 1018.4 1018.4 0.0
22/07:30pm 13.6 9.6 13.0 96 0.3 SSW 26 32 14 17 1018.1 1018.1 0.0
22/07:00pm 13.9 9.8 12.8 93 0.6 SW 26 30 14 16 1017.6 1017.6 0.0
22/06:30pm 14.4 9.9 12.6 89 1.0 SW 28 33 15 18 1017.3 1017.3 0.0
22/06:00pm 14.8 10.4 12.8 88 1.1 SW 28 33 15 18 1017.0 1017.0 0.0
22/05:30pm 14.9 10.5 12.9 88 1.1 SW 28 32 15 17 1016.9 1016.9 0.0
22/05:00pm 14.9 11.2 12.8 87 1.2 SW 24 30 13 16 1016.5 1016.5 0.0
22/04:30pm 15.1 13.1 12.8 86 1.3 SW 15 20 8 11 1016.3 1016.3 0.0
22/04:00pm 15.3 13.6 12.6 84 1.5 SSW 13 17 7 9 1015.9 1015.9 0.0
22/03:30pm 15.4 13.7 12.5 83 1.6 SSW 13 19 7 10 1015.9 1015.9 0.0
22/03:00pm 15.5 12.5 11.9 79 2.0 S 19 20 10 11 1016.1 1016.1 0.0
22/02:30pm 16.0 13.0 11.8 76 2.3 SW 19 28 10 15 1015.6 1015.7 0.0
22/02:00pm 17.8 14.7 11.6 67 3.4 WSW 19 22 10 12 1015.3 1015.4 0.0
22/01:30pm 18.7 16.9 12.2 66 3.6 NNW 13 15 7 8 1014.8 1014.9 0.0
22/01:00pm 17.6 14.9 11.6 68 3.3 N 17 19 9 10 1014.6 1014.7 0.0
22/12:30pm 18.4 14.6 11.2 63 3.9 NNE 22 24 12 13 1014.1 1014.2 0.0
22/12:00pm 18.3 14.4 10.9 62 4.0 NNE 22 26 12 14 1014.5 1014.6 0.0
22/11:30am 17.4 12.7 10.8 65 3.5 NNE 26 28 14 15 1015.4 1015.5 0.0
22/11:00am 18.1 13.9 11.0 63 3.8 NNE 24 26 13 14 1016.1 1016.1 0.0
22/10:30am 17.6 13.1 10.2 62 3.9 NNE 24 28 13 15 1016.4 1016.4 0.0
22/10:00am 16.6 11.5 9.1 61 3.9 NNE 26 28 14 15 1016.5 1016.5 0.0
22/09:30am 17.0 12.2 8.9 59 4.2 NNE 24 26 13 14 1016.7 1016.7 0.0
22/09:00am 16.2 11.2 7.9 58 4.2 NE 24 28 13 15 1017.0 1017.0 0.0
22/08:30am 15.4 10.1 6.7 56 4.3 NE 24 30 13 16 1017.3 1017.3 0.0
22/08:00am 14.2 8.9 6.8 61 3.6 NE 24 33 13 18 1017.3 1017.3 0.0
22/07:30am 13.1 8.0 6.2 63 3.3 NE 22 28 12 15 1017.7 1017.7 0.0
22/07:00am 12.5 7.8 6.1 65 3.0 NE 20 24 11 13 1017.9 1017.9 0.0
22/06:30am 12.3 7.6 6.1 66 2.9 NE 20 24 11 13 1018.1 1018.1 0.0
22/06:00am 12.0 7.4 5.4 64 3.0 NE 19 24 10 13 1018.3 1018.3 0.0
22/05:30am 12.2 7.4 5.4 63 3.2 NE 20 26 11 14 1018.3 1018.3 0.0
22/05:00am 11.7 7.0 5.3 65 2.9 ENE 19 22 10 12 1018.6 1018.6 0.0
22/04:30am 11.7 7.1 5.6 66 2.8 ENE 19 22 10 12 1018.9 1018.9 0.0
22/04:00am 11.6 7.0 5.7 67 2.7 ENE 19 22 10 12 1019.2 1019.2 0.0
22/03:30am 11.5 6.9 5.8 68 2.7 ENE 19 24 10 13 1019.6 1019.6 0.0
22/03:00am 12.0 8.0 6.5 69 2.6 NE 17 22 9 12 1020.2 1020.2 0.0
22/02:30am 12.0 8.0 6.5 69 2.6 NE 17 20 9 11 1020.7 1020.7 0.0
22/02:00am 12.4 7.9 7.1 70 2.5 NE 20 26 11 14 1021.2 1021.2 0.0
22/01:30am 12.6 8.2 7.3 70 2.6 NNE 20 24 11 13 1021.7 1021.7 0.0
22/01:00am 12.9 8.0 6.9 67 2.9 NNE 22 28 12 15 1022.5 1022.5 0.0
22/12:30am 13.0 7.7 7.0 67 2.9 NNE 24 30 13 16 1022.9 1022.9 0.0
22/12:00am 13.1 8.9 8.2 72 2.4 NNE 20 24 11 13 1023.2 1023.2 0.0
 
Date/Time
EDT
Temp
°C
App
Temp
°C
Dew
Point
Rel
Hum
%
Delta-T
°C
Wind Press
QNH
hPa
Press
MSL
hPa
Rain
since 9 am
mm
Dir
 
Spd
km/h
Gust
km/h
Spd
kts
Gust
kts
21/11:30pm 12.8 9.7 8.7 76 2.1 NNE 15 19 8 10 1023.6 1023.6 0.0
21/11:00pm 12.4 10.3 8.3 76 2.0 NE 9 13 5 7 1024.1 1024.1 0.0
21/10:30pm 13.4 9.5 8.7 73 2.4 N 19 24 10 13 1024.2 1024.2 0.0
21/10:00pm 13.9 7.9 8.5 70 2.7 N 30 37 16 20 1024.5 1024.5 0.0
21/09:30pm 13.9 10.2 9.5 75 2.3 N 19 22 10 12 1025.0 1025.0 0.0
21/09:00pm 13.9 11.3 9.3 74 2.3 NNE 13 15 7 8 1025.1 1025.1 0.0
21/08:30pm 12.8 12.0 9.8 82 1.5 S 4 6 2 3 1025.2 1025.2 0.0
21/08:00pm 12.8 10.9 9.1 78 1.9 SSE 9 11 5 6 1025.6 1025.6 0.0
21/07:30pm 13.5 10.9 9.4 76 2.1 S 13 17 7 9 1025.3 1025.3 0.0
21/07:00pm 14.1 10.5 9.7 75 2.3 S 19 24 10 13 1025.3 1025.3 0.0
21/06:30pm 14.4 10.5 9.6 73 2.5 S 20 26 11 14 1025.4 1025.4 0.0
21/06:00pm 14.4 9.7 9.4 72 2.5 S 24 30 13 16 1025.6 1025.6 0.0
21/05:30pm 14.7 9.7 9.7 72 2.6 S 26 33 14 18 1026.1 1026.1 0.0
21/05:00pm 14.5 9.0 9.3 71 2.6 S 28 33 15 18 1026.3 1026.3 0.0
21/04:30pm 14.6 8.9 8.5 67 3.1 S 28 33 15 18 1026.5 1026.5 0.0
21/04:00pm 15.3 10.6 9.4 68 3.0 S 24 32 13 17 1027.1 1027.1 0.0
21/03:30pm 15.1 10.0 9.2 68 3.0 S 26 32 14 17 1027.3 1027.3 0.0
21/03:00pm 14.9 9.3 8.6 66 3.2 S 28 35 15 19 1027.7 1027.7 0.0
21/02:30pm 15.2 9.9 8.4 64 3.4 S 26 30 14 16 1028.2 1028.2 0.0
21/02:00pm 15.2 10.9 8.0 62 3.6 S 20 26 11 14 1028.7 1028.7 0.0
21/01:30pm 15.7 11.6 8.0 60 3.9 S 19 22 10 12 1029.1 1029.1 0.0
21/01:00pm 17.1 14.1 9.3 60 4.0 SSW 15 17 8 9 1029.6 1029.6 0.0
21/12:30pm 15.2 12.2 7.5 60 3.8 S 13 15 7 8 1029.9 1029.9 0.0
21/12:00pm 15.4 12.3 7.2 58 4.0 SSW 13 15 7 8 1030.4 1030.4 0.0
21/11:30am 15.0 12.8 6.3 56 4.2 SSW 7 13 4 7 1030.7 1030.7 0.0
21/11:00am 15.7 13.5 5.3 50 4.9 N 6 7 3 4 1031.2 1031.2 0.0
21/10:30am 14.4 12.2 5.2 54 4.3 N 6 7 3 4 1031.4 1031.4 0.0
21/10:00am 12.8 9.4 5.7 62 3.3 NNE 13 15 7 8 1031.5 1031.5 0.0
21/09:30am 12.1 9.1 6.2 67 2.8 NE 11 15 6 8 1031.7 1031.7 0.0
21/09:00am 11.9 9.0 6.6 70 2.5 ENE 11 17 6 9 1031.9 1031.9 0.0
21/08:30am 10.8 7.5 6.4 74 2.1 ENE 13 17 7 9 1032.1 1032.1 0.0
21/08:00am 9.9 7.2 7.3 84 1.2 E 11 15 6 8 1032.0 1032.0 0.0
21/07:30am 8.5 4.8 6.5 87 0.9 E 15 19 8 10 1032.3 1032.3 0.0
21/07:00am 7.8 3.6 5.9 88 0.9 E 17 20 9 11 1032.1 1032.1 0.0
21/06:30am 7.1 2.8 5.1 87 0.9 E 17 19 9 10 1031.9 1031.9 0.0
21/06:00am 7.6 3.3 5.2 85 1.1 E 17 20 9 11 1031.8 1031.8 0.0
21/05:30am 7.2 3.0 4.0 80 1.4 ESE 15 17 8 9 1031.7 1031.7 0.0
21/05:00am 6.8 2.9 3.2 78 1.5 E 13 15 7 8 1031.4 1031.4 0.0
21/04:30am 7.3 3.4 3.2 75 1.7 ENE 13 15 7 8 1031.2 1031.2 0.0
21/04:00am 8.2 4.0 3.7 73 1.9 NE 15 20 8 11 1031.1 1031.1 0.0
21/03:30am 7.7 3.8 3.2 73 1.9 ENE 13 19 7 10 1031.5 1031.5 0.0
21/03:00am 10.2 3.9 3.9 65 2.8 N 26 33 14 18 1031.7 1031.7 0.0
21/02:41am 10.6 4.0 4.1 64 2.9 N 28 37 15 20 1031.8 1031.8 0.0
21/02:30am 10.4 6.5 3.4 62 3.1 N 13 17 7 9 1032.2 1032.2 0.0
21/02:00am 10.6 5.5 4.3 65 2.8 N 20 24 11 13 1032.4 1032.4 0.0
21/01:30am 10.7 6.8 5.3 69 2.5 NNW 15 20 8 11 1032.5 1032.5 0.0
21/01:00am 10.7 6.6 6.1 73 2.1 NW 17 20 9 11 1032.8 1032.8 0.0
21/12:30am 10.6 6.9 6.4 75 2.0 N 15 22 8 12 1032.8 1032.8 0.0
21/12:00am 10.3 7.0 6.5 77 1.8 N 13 17 7 9 1032.8 1032.8 0.0
 
Date/Time
EDT
Temp
°C
App
Temp
°C
Dew
Point
Rel
Hum
%
Delta-T
°C
Wind Press
QNH
hPa
Press
MSL
hPa
Rain
since 9 am
mm
Dir
 
Spd
km/h
Gust
km/h
Spd
kts
Gust
kts
20/11:30pm 10.4 6.0 6.7 78 1.7 NNE 19 22 10 12 1032.8 1032.8 0.0
20/11:00pm 8.1 5.1 4.1 76 1.7 ENE 9 11 5 6 1032.9 1032.9 0.0

Other Formats:

Comma delimited format used in spreadsheet applications
http://www.bom.gov.au/fwo/IDT60801/IDT60801.94974.axf

JavaScript Object Notation format (JSON) in row-major order
http://www.bom.gov.au/fwo/IDT60801/IDT60801.94974.json